createdAt,value
2023-02-02T00:01:29.078Z,101999.84
2023-02-02T00:03:58.913Z,102008.50
2023-02-02T00:06:29.727Z,101995.72
2023-02-02T00:09:01.124Z,101975.50
2023-02-02T00:11:30.844Z,101963.38
2023-02-02T00:14:01.026Z,101993.94
2023-02-02T00:16:47.078Z,101994.84
2023-02-02T00:19:18.114Z,101807.59
2023-02-02T00:21:48.397Z,101984.47
2023-02-02T00:24:19.345Z,102002.50
2023-02-02T00:26:50.862Z,101965.72
2023-02-02T00:29:22.595Z,101994.91
2023-02-02T00:31:54.443Z,101994.03
2023-02-02T00:34:24.619Z,101928.72
2023-02-02T00:36:54.729Z,101983.78
2023-02-02T00:39:27.190Z,102000.91
2023-02-02T00:41:58.631Z,102000.66
2023-02-02T00:44:45.355Z,102004.88
2023-02-02T00:47:16.979Z,101987.59
2023-02-02T00:49:46.731Z,101991.28
2023-02-02T00:52:16.404Z,102003.16
2023-02-02T00:54:46.907Z,102006.63
2023-02-02T00:57:17.023Z,101889.63
2023-02-02T00:59:47.061Z,101991.00
2023-02-02T01:02:17.923Z,101987.59
2023-02-02T01:04:47.397Z,101999.50
2023-02-02T01:07:17.418Z,101983.50
2023-02-02T01:09:47.332Z,101996.59
2023-02-02T01:12:16.883Z,101999.13
2023-02-02T01:14:46.241Z,101992.78
2023-02-02T01:17:17.226Z,101995.31
2023-02-02T01:19:46.987Z,101999.72
2023-02-02T01:22:16.670Z,101998.25
2023-02-02T01:24:46.139Z,102005.03
2023-02-02T01:27:15.884Z,101991.19
2023-02-02T01:29:45.840Z,101989.34
2023-02-02T01:32:15.487Z,101989.59
2023-02-02T01:34:46.322Z,101988.53
2023-02-02T01:37:16.131Z,102001.50
2023-02-02T01:39:46.317Z,102005.09
2023-02-02T01:42:21.697Z,102005.03
2023-02-02T01:45:15.638Z,101996.31
2023-02-02T01:47:51.340Z,101992.81
2023-02-02T01:50:23.690Z,102005.97
2023-02-02T01:52:56.752Z,102006.84
2023-02-02T01:55:30.395Z,102004.16
2023-02-02T01:58:04.082Z,102007.78
2023-02-02T02:00:33.910Z,102010.22
2023-02-02T02:03:07.738Z,102004.94
2023-02-02T02:05:51.142Z,102011.88
2023-02-02T02:08:24.906Z,102023.94
2023-02-02T02:10:55.004Z,102011.13
2023-02-02T02:13:48.087Z,101981.97
2023-02-02T02:16:25.179Z,102015.28
2023-02-02T02:19:05.644Z,102003.25
2023-02-02T02:22:09.121Z,101972.25
2023-02-02T02:25:35.084Z,102005.75
2023-02-02T02:28:53.147Z,102002.38
2023-02-02T02:32:00.784Z,101969.72
2023-02-02T02:34:42.593Z,102000.44
2023-02-02T02:37:18.288Z,102002.28
2023-02-02T02:39:56.422Z,101797.81
2023-02-02T02:42:31.548Z,101947.97
2023-02-02T02:45:03.984Z,101991.06
2023-02-02T02:47:37.515Z,101995.31
2023-02-02T02:50:08.414Z,101965.53
2023-02-02T02:52:40.351Z,101805.41
2023-02-02T02:55:13.801Z,101992.66
2023-02-02T02:58:01.956Z,101996.44
2023-02-02T03:00:48.316Z,101964.22
2023-02-02T03:03:35.955Z,101940.63
2023-02-02T03:06:13.877Z,101995.41
2023-02-02T03:08:47.389Z,101999.91
2023-02-02T03:11:18.624Z,101942.31
2023-02-02T03:13:49.025Z,101959.59
2023-02-02T03:16:19.262Z,102000.50
2023-02-02T03:18:50.163Z,102008.28
2023-02-02T03:21:19.870Z,102015.28
2023-02-02T03:23:51.680Z,101986.81
2023-02-02T03:26:21.775Z,101849.53
2023-02-02T03:28:51.647Z,101949.19
2023-02-02T03:31:21.274Z,102004.75
2023-02-02T03:33:52.401Z,102023.28
2023-02-02T03:36:22.122Z,102033.16
2023-02-02T03:38:52.156Z,102009.78
2023-02-02T03:41:21.743Z,102020.25
2023-02-02T03:43:51.244Z,101968.91
2023-02-02T03:46:20.747Z,102015.34
2023-02-02T03:48:51.761Z,102029.84
2023-02-02T03:51:21.456Z,102019.13
2023-02-02T03:53:51.028Z,102024.44
2023-02-02T03:56:20.644Z,102020.13
2023-02-02T03:58:50.177Z,102026.13
2023-02-02T04:01:27.654Z,101810.81
2023-02-02T04:04:00.820Z,102014.28
2023-02-02T04:06:31.663Z,102012.34
2023-02-02T04:09:01.741Z,102017.69
2023-02-02T04:11:32.101Z,101999.44
2023-02-02T04:14:02.693Z,102014.03
2023-02-02T04:16:35.453Z,102011.63
2023-02-02T04:19:07.575Z,102019.13
2023-02-02T04:21:38.073Z,101988.59
2023-02-02T04:24:12.057Z,102002.44
2023-02-02T04:26:42.502Z,102022.78
2023-02-02T04:29:11.639Z,102028.97
2023-02-02T04:31:41.534Z,101902.38
2023-02-02T04:34:12.729Z,102031.25
2023-02-02T04:36:42.061Z,102012.53
2023-02-02T04:39:14.333Z,102019.88
2023-02-02T04:41:43.427Z,102022.72
2023-02-02T04:44:16.228Z,102012.34
2023-02-02T04:46:48.763Z,102029.47
2023-02-02T04:49:19.853Z,102012.16
2023-02-02T04:51:50.584Z,102044.81
2023-02-02T04:54:21.069Z,102043.22
2023-02-02T04:56:51.277Z,101881.59
2023-02-02T04:59:21.262Z,101865.50
2023-02-02T05:01:51.537Z,102040.88
2023-02-02T05:04:22.558Z,102042.41
2023-02-02T05:06:52.714Z,101995.47
2023-02-02T05:09:22.333Z,102041.06
2023-02-02T05:11:52.233Z,102050.84
2023-02-02T05:14:22.122Z,102043.28
2023-02-02T05:16:52.895Z,102033.78
2023-02-02T05:19:23.952Z,102048.47
2023-02-02T05:21:55.868Z,102044.78
2023-02-02T05:24:26.117Z,102002.88
2023-02-02T05:27:00.574Z,102040.69
2023-02-02T05:29:30.705Z,102040.34
2023-02-02T05:32:00.841Z,102055.19
2023-02-02T05:34:31.573Z,102048.47
2023-02-02T05:37:01.233Z,102039.81
2023-02-02T05:39:30.331Z,102040.16
2023-02-02T05:41:59.869Z,102044.28
2023-02-02T05:44:29.479Z,102040.03
2023-02-02T05:47:00.756Z,102023.13
2023-02-02T05:49:31.462Z,102053.97
2023-02-02T05:52:01.222Z,102017.94
2023-02-02T05:54:34.940Z,102058.38
2023-02-02T05:57:04.546Z,102053.03
2023-02-02T05:59:33.926Z,102033.91
2023-02-02T06:02:03.494Z,102029.28
2023-02-02T06:04:34.179Z,101691.59
2023-02-02T06:07:05.025Z,102059.13
2023-02-02T06:09:34.817Z,102048.81
2023-02-02T06:12:04.743Z,102065.66
2023-02-02T06:14:34.322Z,102048.72
2023-02-02T06:17:03.786Z,102029.38
2023-02-02T06:19:34.224Z,102054.09
2023-02-02T06:22:04.100Z,102051.25
2023-02-02T06:24:33.680Z,102006.22
2023-02-02T06:27:03.450Z,102068.69
2023-02-02T06:29:33.038Z,102054.97
2023-02-02T06:32:03.597Z,102087.75
2023-02-02T06:34:34.366Z,102099.13
2023-02-02T06:37:04.138Z,102103.38
2023-02-02T06:39:33.517Z,102099.94
2023-02-02T06:42:20.006Z,102070.31
2023-02-02T06:44:51.003Z,102031.81
2023-02-02T06:47:20.537Z,102099.44
2023-02-02T06:49:51.144Z,102094.22
2023-02-02T06:52:20.492Z,102103.72
2023-02-02T06:54:50.518Z,102093.34
2023-02-02T06:57:20.064Z,102105.53
2023-02-02T06:59:50.703Z,102093.31
2023-02-02T07:02:20.155Z,102091.00
2023-02-02T07:04:50.548Z,102105.47
2023-02-02T07:07:20.445Z,102094.00
2023-02-02T07:09:58.116Z,102079.72
2023-02-02T07:12:28.492Z,102057.31
2023-02-02T07:14:59.499Z,102113.13
2023-02-02T07:17:29.053Z,102120.91
2023-02-02T07:19:59.861Z,101883.84
2023-02-02T07:22:29.424Z,102126.97
2023-02-02T07:24:58.895Z,102131.06
2023-02-02T07:27:28.515Z,102133.69
2023-02-02T07:29:58.274Z,102103.81
2023-02-02T07:32:30.139Z,101956.47
2023-02-02T07:35:00.946Z,102137.06
2023-02-02T07:37:30.312Z,102096.94
2023-02-02T07:39:59.477Z,102134.63
2023-02-02T07:42:28.775Z,102166.56
2023-02-02T07:44:58.712Z,102148.41
2023-02-02T07:47:28.451Z,102129.66
2023-02-02T07:49:57.941Z,102164.19
2023-02-02T07:52:30.642Z,102132.16
2023-02-02T07:55:14.055Z,102163.22
2023-02-02T07:57:44.663Z,102159.97
2023-02-02T08:00:15.288Z,102149.50
2023-02-02T08:02:44.386Z,102158.13
2023-02-02T08:05:14.061Z,102166.84
2023-02-02T08:07:44.981Z,102152.03
2023-02-02T08:10:14.458Z,102159.78
2023-02-02T08:12:46.770Z,102164.13
2023-02-02T08:15:16.515Z,102172.00
2023-02-02T08:17:50.393Z,102169.41
2023-02-02T08:20:20.719Z,102147.38
2023-02-02T08:22:51.382Z,102174.56
2023-02-02T08:25:21.032Z,102141.28
2023-02-02T08:27:55.014Z,102149.81
2023-02-02T08:30:27.377Z,101986.91
2023-02-02T08:32:57.119Z,102181.47
2023-02-02T08:35:26.870Z,102184.81
2023-02-02T08:37:58.157Z,102176.28
2023-02-02T08:40:27.987Z,102159.28
2023-02-02T08:42:57.778Z,102188.28
2023-02-02T08:46:01.395Z,102198.72
2023-02-02T08:48:19.908Z,102204.66
2023-02-02T08:50:55.258Z,102208.03
2023-02-02T08:53:27.246Z,102216.72
2023-02-02T08:56:00.751Z,102194.38
2023-02-02T08:58:31.109Z,102211.34
2023-02-02T09:01:07.232Z,102211.34
2023-02-02T09:03:39.234Z,102209.69
2023-02-02T09:06:11.495Z,102209.72
2023-02-02T09:08:42.728Z,102057.38
2023-02-02T09:11:13.771Z,102226.31
2023-02-02T09:13:45.971Z,102214.88
2023-02-02T09:16:16.933Z,102227.72
2023-02-02T09:18:49.313Z,102229.50
2023-02-02T09:21:20.043Z,102237.22
2023-02-02T09:23:53.848Z,102245.88
2023-02-02T09:26:24.733Z,102241.63
2023-02-02T09:28:56.881Z,102251.97
2023-02-02T09:31:27.181Z,102256.66
2023-02-02T09:34:03.698Z,102255.41
2023-02-02T09:36:33.365Z,102240.91
2023-02-02T09:39:05.142Z,102240.00
2023-02-02T09:41:59.525Z,102245.00
2023-02-02T09:44:48.338Z,102247.88
2023-02-02T09:47:20.370Z,102248.47
2023-02-02T09:49:58.385Z,102241.56
2023-02-02T09:52:31.270Z,102244.19
2023-02-02T09:55:06.300Z,102157.47
2023-02-02T09:57:40.908Z,102245.72
2023-02-02T10:00:26.017Z,102249.28
2023-02-02T10:03:01.309Z,102250.75
2023-02-02T10:05:37.817Z,102249.00
2023-02-02T10:08:11.573Z,102265.22
2023-02-02T10:10:45.479Z,102253.22
2023-02-02T10:13:19.011Z,102262.72
2023-02-02T10:16:01.579Z,102252.59
2023-02-02T10:18:41.336Z,102292.03
2023-02-02T10:21:15.192Z,102276.56
2023-02-02T10:23:46.533Z,102283.44
2023-02-02T10:26:20.745Z,102116.66
2023-02-02T10:29:09.158Z,102322.38
2023-02-02T10:31:45.848Z,102277.59
2023-02-02T10:34:25.304Z,102297.28
2023-02-02T10:37:13.037Z,102298.91
2023-02-02T10:39:58.401Z,102296.31
2023-02-02T10:42:39.643Z,102267.91
2023-02-02T10:45:15.702Z,102283.41
2023-02-02T10:47:46.452Z,102293.53
2023-02-02T10:50:20.640Z,102288.34
2023-02-02T10:52:53.738Z,102280.72
2023-02-02T10:55:30.005Z,102286.56
2023-02-02T10:58:07.444Z,102292.72
2023-02-02T11:00:45.522Z,102303.00
2023-02-02T11:03:16.603Z,102292.69
2023-02-02T11:06:03.385Z,102284.66
2023-02-02T11:08:36.356Z,102281.94
2023-02-02T11:11:13.594Z,102297.63
2023-02-02T11:13:50.202Z,102279.16
2023-02-02T11:16:32.622Z,102304.50
2023-02-02T11:19:24.742Z,102301.78
2023-02-02T11:21:56.780Z,102301.84
2023-02-02T11:24:29.224Z,102294.13
2023-02-02T11:27:03.284Z,102300.84
2023-02-02T11:29:37.404Z,102270.28
2023-02-02T11:32:28.953Z,102298.19
2023-02-02T11:35:18.698Z,102295.47
2023-02-02T11:37:57.519Z,102295.53
2023-02-02T11:40:33.154Z,102262.09
2023-02-02T11:43:05.612Z,102293.75
2023-02-02T11:45:39.764Z,102295.47
2023-02-02T11:48:16.212Z,102288.59
2023-02-02T11:50:49.298Z,102282.53
2023-02-02T11:53:28.550Z,102300.66
2023-02-02T11:56:01.500Z,102299.66
2023-02-02T11:58:42.621Z,102295.25
2023-02-02T12:01:35.165Z,102287.09
2023-02-02T12:04:24.537Z,102244.09
2023-02-02T12:06:54.136Z,102278.53
2023-02-02T12:09:24.999Z,102262.09
2023-02-02T12:12:04.215Z,102240.00
2023-02-02T12:14:47.166Z,102286.69
2023-02-02T12:17:31.991Z,102289.41
2023-02-02T12:20:14.906Z,102252.81
2023-02-02T12:23:14.648Z,102285.31
2023-02-02T12:26:12.769Z,102282.63
2023-02-02T12:29:01.855Z,102281.63
2023-02-02T12:31:45.604Z,102272.34
2023-02-02T12:34:21.511Z,102281.69
2023-02-02T12:37:03.299Z,102279.44
2023-02-02T12:39:39.075Z,102291.63
2023-02-02T12:42:32.363Z,102296.97
2023-02-02T12:45:30.256Z,102285.75
2023-02-02T12:48:15.353Z,102289.94
2023-02-02T12:51:01.623Z,102289.34
2023-02-02T12:53:46.025Z,102293.66
2023-02-02T12:56:24.832Z,102286.81
2023-02-02T12:59:04.953Z,102287.69
2023-02-02T13:01:52.896Z,102283.59
2023-02-02T13:07:44.850Z,102139.09
2023-02-02T13:10:24.701Z,102281.13
2023-02-02T13:12:59.015Z,102260.88
2023-02-02T13:15:34.534Z,102278.41
2023-02-02T13:18:12.131Z,102278.53
2023-02-02T13:20:45.383Z,102277.72
2023-02-02T13:23:23.631Z,102281.38
2023-02-02T13:25:59.651Z,102280.13
2023-02-02T13:28:41.815Z,102276.75
2023-02-02T13:31:18.294Z,102282.97
2023-02-02T13:34:06.695Z,102282.91
2023-02-02T13:36:38.994Z,102281.19
2023-02-02T13:39:19.955Z,102274.84
2023-02-02T13:41:51.041Z,102287.53
2023-02-02T13:44:27.287Z,102279.88
2023-02-02T13:47:02.817Z,102276.19
2023-02-02T13:49:35.887Z,102284.75
2023-02-02T13:52:28.290Z,102288.31
2023-02-02T13:55:29.225Z,102287.69
2023-02-02T13:58:22.858Z,102291.34
2023-02-02T14:00:55.194Z,102286.47
2023-02-02T14:03:33.952Z,102282.25
2023-02-02T14:06:09.921Z,102291.09
2023-02-02T14:08:44.347Z,102273.25
2023-02-02T14:11:21.822Z,102284.41
2023-02-02T14:14:11.246Z,102289.41
2023-02-02T14:16:58.104Z,102295.47
2023-02-02T14:19:50.550Z,102294.47
2023-02-02T14:22:37.153Z,102280.72
2023-02-02T14:25:53.622Z,102296.09
2023-02-02T14:28:46.829Z,102302.25
2023-02-02T14:31:52.360Z,102296.38
2023-02-02T14:34:30.816Z,102293.66
2023-02-02T14:37:23.232Z,102295.56
2023-02-02T14:40:01.045Z,102282.69
2023-02-02T14:43:06.885Z,102304.19
2023-02-02T14:45:39.891Z,102303.34
2023-02-02T14:48:14.213Z,102285.22
2023-02-02T14:50:49.535Z,102320.25
2023-02-02T14:53:26.767Z,102301.41
2023-02-02T14:56:00.643Z,102313.63
2023-02-02T14:58:34.989Z,102297.97
2023-02-02T15:01:13.901Z,102315.97
2023-02-02T15:03:50.235Z,102318.66
2023-02-02T15:06:33.129Z,102322.03
2023-02-02T15:09:36.740Z,102321.97
2023-02-02T15:12:31.097Z,102335.09
2023-02-02T15:15:17.691Z,102357.63
2023-02-02T15:18:01.169Z,102322.91
2023-02-02T15:20:33.443Z,102320.34
2023-02-02T15:23:07.184Z,102320.25
2023-02-02T15:25:42.157Z,102320.09
2023-02-02T15:28:21.221Z,102321.31
2023-02-02T15:30:56.751Z,102317.66
2023-02-02T15:33:32.228Z,102328.03
2023-02-02T15:36:04.849Z,102318.41
2023-02-02T15:38:37.581Z,102320.97
2023-02-02T15:41:15.694Z,102319.19
2023-02-02T15:43:45.051Z,102328.03
2023-02-02T15:46:24.424Z,102324.25
2023-02-02T15:49:33.323Z,102327.72
2023-02-02T15:52:14.095Z,102279.97
2023-02-02T15:54:53.407Z,102333.41
2023-02-02T15:57:32.099Z,102334.91
2023-02-02T16:00:18.222Z,102346.03
2023-02-02T16:02:49.322Z,102320.97
2023-02-02T16:05:39.497Z,102346.03
2023-02-02T16:08:15.779Z,102348.72
2023-02-02T16:10:46.806Z,102351.25
2023-02-02T16:13:26.458Z,102299.84
2023-02-02T16:15:58.324Z,102375.00
2023-02-02T16:18:27.931Z,102330.69
2023-02-02T16:21:02.075Z,102347.63
2023-02-02T16:23:34.712Z,102360.59
2023-02-02T16:26:07.751Z,102302.19
2023-02-02T16:28:37.357Z,102351.19
2023-02-02T16:31:07.648Z,102359.88
2023-02-02T16:33:39.454Z,102335.97
2023-02-02T16:36:26.023Z,102356.97
2023-02-02T16:38:57.881Z,102352.81
2023-02-02T16:41:33.021Z,102368.94
2023-02-02T16:44:31.679Z,102363.03
2023-02-02T16:47:01.936Z,102357.28
2023-02-02T16:49:37.071Z,102363.25
2023-02-02T16:52:14.463Z,102335.06
2023-02-02T16:54:53.020Z,102322.13
2023-02-02T16:57:27.999Z,102364.28
2023-02-02T17:00:00.623Z,102372.81
2023-02-02T17:02:33.231Z,102374.53
2023-02-02T17:05:07.980Z,102374.47
2023-02-02T17:07:40.044Z,102362.38
2023-02-02T17:10:24.678Z,102355.50
2023-02-02T17:12:54.867Z,102195.19
2023-02-02T17:15:34.970Z,102363.19
2023-02-02T17:18:06.496Z,102377.53
2023-02-02T17:20:36.551Z,102378.59
2023-02-02T17:23:10.031Z,102412.34
2023-02-02T17:25:42.542Z,102381.81
2023-02-02T17:28:14.070Z,102370.59
2023-02-02T17:30:44.518Z,102379.38
2023-02-02T17:33:16.041Z,102382.78
2023-02-02T17:35:55.788Z,102376.50
2023-02-02T17:38:28.501Z,102369.00
2023-02-02T17:41:01.658Z,102380.28
2023-02-02T17:43:32.807Z,102381.00
2023-02-02T17:46:04.371Z,102377.44
2023-02-02T17:48:35.634Z,102381.81
2023-02-02T17:51:07.267Z,102381.75
2023-02-02T17:53:38.352Z,102376.63
2023-02-02T17:56:08.343Z,102367.22
2023-02-02T17:58:37.707Z,102376.72
2023-02-02T18:01:08.600Z,102203.22
2023-02-02T18:03:40.959Z,102384.41
2023-02-02T18:06:12.305Z,102358.47
2023-02-02T18:08:42.747Z,102364.41
2023-02-02T18:11:14.304Z,102377.47
2023-02-02T18:13:46.218Z,102378.19
2023-02-02T18:16:16.933Z,102377.28
2023-02-02T18:18:46.884Z,102179.28
2023-02-02T18:21:15.991Z,102371.28
2023-02-02T18:23:49.007Z,102374.72
2023-02-02T18:26:22.184Z,102353.19
2023-02-02T18:28:52.202Z,102362.34
2023-02-02T18:31:23.936Z,102363.69
2023-02-02T18:33:54.618Z,102366.53
2023-02-02T18:36:24.152Z,102339.22
2023-02-02T18:38:55.095Z,102375.75
2023-02-02T18:41:26.671Z,102361.97
2023-02-02T18:43:56.556Z,102370.69
2023-02-02T18:46:26.881Z,102368.13
2023-02-02T18:48:57.226Z,102370.00
2023-02-02T18:51:27.487Z,102364.00
2023-02-02T18:54:01.028Z,102369.81
2023-02-02T18:56:30.768Z,102326.16
2023-02-02T18:59:01.428Z,102369.19
2023-02-02T19:01:31.002Z,102209.69
2023-02-02T19:04:01.360Z,102356.22
2023-02-02T19:06:48.066Z,102362.34
2023-02-02T19:09:18.983Z,102345.38
2023-02-02T19:11:54.894Z,102345.72
2023-02-02T19:14:28.879Z,102347.63
2023-02-02T19:17:08.142Z,102348.47
2023-02-02T19:19:40.453Z,102346.75
2023-02-02T19:22:19.776Z,102347.41
2023-02-02T19:24:51.584Z,102344.88
2023-02-02T19:27:23.128Z,102347.38
2023-02-02T19:29:59.944Z,102352.13
2023-02-02T19:32:34.909Z,102353.84
2023-02-02T19:35:08.950Z,102309.22
2023-02-02T19:37:40.077Z,102346.97
2023-02-02T19:40:20.307Z,102353.72
2023-02-02T19:42:57.545Z,102348.59
2023-02-02T19:45:31.383Z,102360.34
2023-02-02T19:48:03.568Z,102355.97
2023-02-02T19:50:41.405Z,102348.03
2023-02-02T19:53:17.484Z,102350.81
2023-02-02T19:55:49.074Z,102359.31
2023-02-02T19:58:23.396Z,102367.09
2023-02-02T20:00:54.792Z,102331.09
2023-02-02T20:03:26.989Z,102360.13
2023-02-02T20:05:58.937Z,102406.72
2023-02-02T20:08:37.329Z,102390.59
2023-02-02T20:11:32.464Z,102386.97
2023-02-02T20:14:28.756Z,102374.03
2023-02-02T20:17:02.351Z,102394.56
2023-02-02T20:19:36.276Z,102398.03
2023-02-02T20:22:25.234Z,102384.28
2023-02-02T20:24:56.656Z,102387.72
2023-02-02T20:27:29.159Z,102350.00
2023-02-02T20:30:02.205Z,102370.00
2023-02-02T20:32:41.028Z,102398.28
2023-02-02T20:35:24.150Z,102382.50
2023-02-02T20:37:56.138Z,102390.56
2023-02-02T20:40:27.916Z,102394.41
2023-02-02T20:42:59.362Z,102401.63
2023-02-02T20:45:29.946Z,102389.41
2023-02-02T20:48:00.285Z,102374.84
2023-02-02T20:50:31.114Z,102397.91
2023-02-02T20:53:01.595Z,102377.16
2023-02-02T20:55:30.709Z,102388.56
2023-02-02T20:58:04.608Z,102383.38
2023-02-02T21:00:36.821Z,102403.19
2023-02-02T21:03:07.041Z,102404.22
2023-02-02T21:05:36.460Z,102398.78
2023-02-02T21:08:07.424Z,102402.41
2023-02-02T21:10:36.727Z,102371.66
2023-02-02T21:13:07.468Z,102406.84
2023-02-02T21:15:37.003Z,102399.09
2023-02-02T21:18:06.829Z,102395.63
2023-02-02T21:20:37.897Z,102380.00
2023-02-02T21:23:09.939Z,102395.56
2023-02-02T21:25:41.609Z,102397.09
2023-02-02T21:28:12.563Z,102387.03
2023-02-02T21:30:42.522Z,102379.78
2023-02-02T21:33:11.892Z,102386.75
2023-02-02T21:35:40.968Z,102390.28
2023-02-02T21:38:15.595Z,102400.50
2023-02-02T21:40:46.871Z,102417.81
2023-02-02T21:43:19.848Z,102417.78
2023-02-02T21:45:51.822Z,102361.91
2023-02-02T21:48:30.958Z,102392.94
2023-02-02T21:51:17.705Z,102387.63
2023-02-02T21:53:47.449Z,102372.22
2023-02-02T21:56:27.672Z,102395.44
2023-02-02T21:59:01.482Z,102392.84
2023-02-02T22:01:35.519Z,102387.13
2023-02-02T22:04:05.107Z,102203.56
2023-02-02T22:06:36.143Z,102371.25
2023-02-02T22:09:16.470Z,102366.69
2023-02-02T22:11:49.219Z,102366.03
2023-02-02T22:14:28.339Z,102360.03
2023-02-02T22:16:59.006Z,102368.69
2023-02-02T22:19:33.171Z,102378.41
2023-02-02T22:22:15.632Z,102364.50
2023-02-02T22:24:46.095Z,102376.63
2023-02-02T22:27:26.722Z,102383.44
2023-02-02T22:30:02.255Z,102363.47
2023-02-02T22:32:31.598Z,102364.38
2023-02-02T22:35:00.832Z,102347.06
2023-02-02T22:37:30.201Z,102354.34
2023-02-02T22:40:01.869Z,102322.19
2023-02-02T22:42:30.953Z,102331.84
2023-02-02T22:45:01.417Z,102316.88
2023-02-02T22:47:31.005Z,102331.66
2023-02-02T22:50:00.643Z,102328.47
2023-02-02T22:52:30.172Z,102315.31
2023-02-02T22:55:00.239Z,102274.06
2023-02-02T22:57:29.520Z,102290.81
2023-02-02T22:59:59.384Z,102290.00
2023-02-02T23:02:32.167Z,102264.28
2023-02-02T23:05:01.834Z,102263.47
2023-02-02T23:07:31.008Z,102238.50
2023-02-02T23:10:00.696Z,102272.63
2023-02-02T23:12:30.374Z,102286.41
2023-02-02T23:15:00.193Z,102282.28
2023-02-02T23:17:29.375Z,102282.22
2023-02-02T23:20:00.534Z,102282.00
2023-02-02T23:22:29.998Z,102279.41
2023-02-02T23:25:04.857Z,102294.81
2023-02-02T23:27:34.339Z,102298.50
2023-02-02T23:30:04.884Z,102292.59
2023-02-02T23:32:34.929Z,102269.41
2023-02-02T23:35:08.755Z,102296.75
2023-02-02T23:37:39.355Z,102267.56
2023-02-02T23:40:10.096Z,102295.00
2023-02-02T23:42:39.768Z,102308.16
2023-02-02T23:45:10.495Z,102313.34
2023-02-02T23:47:40.229Z,102324.66
2023-02-02T23:50:12.399Z,102322.72
2023-02-02T23:52:41.891Z,102327.97
2023-02-02T23:55:12.040Z,102336.47
2023-02-02T23:57:41.582Z,102172.03
